createdAt,value
2023-08-29T00:01:12.153Z,100064.47
2023-08-29T00:03:42.514Z,100065.44
2023-08-29T00:06:11.334Z,100071.53
2023-08-29T00:08:41.852Z,100074.31
2023-08-29T00:11:11.912Z,100073.50
2023-08-29T00:13:42.537Z,100072.78
2023-08-29T00:16:19.309Z,100085.16
2023-08-29T00:18:48.838Z,100085.25
2023-08-29T00:21:17.963Z,100079.28
2023-08-29T00:23:50.421Z,100081.94
2023-08-29T00:26:18.871Z,100084.84
2023-08-29T00:28:48.958Z,100093.88
2023-08-29T00:31:18.443Z,100087.03
2023-08-29T00:33:47.244Z,100094.25
2023-08-29T00:36:16.940Z,100099.53
2023-08-29T00:38:46.353Z,100112.75
2023-08-29T00:41:17.500Z,100113.69
2023-08-29T00:43:47.269Z,100119.94
2023-08-29T00:46:18.185Z,100112.84
2023-08-29T00:48:47.175Z,100106.16
2023-08-29T00:51:17.245Z,100109.75
2023-08-29T00:53:47.198Z,100107.13
2023-08-29T00:56:19.744Z,100102.81
2023-08-29T00:58:51.627Z,100093.22
2023-08-29T01:01:23.377Z,100098.50
2023-08-29T01:03:53.880Z,100104.88
2023-08-29T01:06:26.425Z,100105.97
2023-08-29T01:08:55.032Z,100099.28
2023-08-29T01:11:42.278Z,100100.47
2023-08-29T01:14:35.076Z,100092.53
2023-08-29T01:17:10.443Z,100101.81
2023-08-29T01:19:42.570Z,100096.78
2023-08-29T01:22:30.643Z,100105.78
2023-08-29T01:25:20.824Z,100104.13
2023-08-29T01:27:52.005Z,100101.47
2023-08-29T01:30:22.139Z,100105.09
2023-08-29T01:32:52.791Z,100117.31
2023-08-29T01:35:24.164Z,100113.97
2023-08-29T01:37:52.965Z,100111.44
2023-08-29T01:40:22.932Z,100114.25
2023-08-29T01:42:52.683Z,100104.78
2023-08-29T01:45:22.022Z,100113.66
2023-08-29T01:47:51.756Z,100113.88
2023-08-29T01:50:22.733Z,100114.03
2023-08-29T01:52:51.487Z,100106.25
2023-08-29T01:55:22.951Z,100109.13
2023-08-29T01:57:54.769Z,100112.22
2023-08-29T02:00:26.772Z,100108.88
2023-08-29T02:02:56.708Z,100110.81
2023-08-29T02:05:26.505Z,100122.88
2023-08-29T02:07:55.081Z,100123.84
2023-08-29T02:10:24.965Z,100128.16
2023-08-29T02:12:54.093Z,100134.41
2023-08-29T02:15:25.106Z,100133.59
2023-08-29T02:17:55.252Z,100125.09
2023-08-29T02:20:24.730Z,100118.16
2023-08-29T02:22:53.925Z,100121.72
2023-08-29T02:25:23.535Z,100123.66
2023-08-29T02:27:53.653Z,100119.47
2023-08-29T02:30:24.055Z,100117.09
2023-08-29T02:32:57.459Z,100114.56
2023-08-29T02:35:26.618Z,100117.84
2023-08-29T02:37:57.548Z,100133.41
2023-08-29T02:40:27.323Z,100119.38
2023-08-29T02:42:57.913Z,100132.81
2023-08-29T02:45:27.383Z,100128.75
2023-08-29T02:47:57.892Z,100121.19
2023-08-29T02:50:27.231Z,100122.06
2023-08-29T02:53:01.421Z,100116.91
2023-08-29T02:55:31.340Z,100113.44
2023-08-29T02:58:01.847Z,100127.56
2023-08-29T03:00:33.510Z,100117.16
2023-08-29T03:03:05.234Z,100116.53
2023-08-29T03:05:34.807Z,100109.84
2023-08-29T03:08:08.402Z,100121.09
2023-08-29T03:10:41.553Z,100125.50
2023-08-29T03:13:11.732Z,100122.06
2023-08-29T03:15:42.564Z,100128.28
2023-08-29T03:18:13.393Z,100128.28
2023-08-29T03:20:44.950Z,100127.31
2023-08-29T03:23:15.548Z,100128.97
2023-08-29T03:25:45.647Z,100128.16
2023-08-29T03:28:15.073Z,100112.47
2023-08-29T03:30:45.813Z,100116.16
2023-08-29T03:33:17.070Z,100114.28
2023-08-29T03:35:46.872Z,100116.31
2023-08-29T03:38:16.750Z,100121.59
2023-08-29T03:40:45.752Z,100126.00
2023-08-29T03:43:15.328Z,100133.66
2023-08-29T03:45:46.201Z,100130.22
2023-08-29T03:48:23.991Z,100130.56
2023-08-29T03:51:09.007Z,100123.13
2023-08-29T03:53:41.986Z,100125.91
2023-08-29T03:56:13.587Z,100129.75
2023-08-29T03:58:44.824Z,100124.47
2023-08-29T04:01:15.175Z,100121.34
2023-08-29T04:04:06.040Z,100111.38
2023-08-29T04:06:39.679Z,100114.16
2023-08-29T04:09:17.625Z,100118.59
2023-08-29T04:11:47.196Z,100119.81
2023-08-29T04:14:18.223Z,100124.34
2023-08-29T04:16:47.093Z,100121.00
2023-08-29T04:19:23.930Z,100114.06
2023-08-29T04:21:53.670Z,100113.34
2023-08-29T04:24:25.712Z,100121.38
2023-08-29T04:26:55.561Z,100123.16
2023-08-29T04:29:29.098Z,100112.75
2023-08-29T04:32:00.109Z,100119.00
2023-08-29T04:34:38.997Z,100113.94
2023-08-29T04:37:19.646Z,100111.41
2023-08-29T04:39:51.064Z,100116.69
2023-08-29T04:42:22.802Z,100107.13
2023-08-29T04:44:53.156Z,100101.84
2023-08-29T04:47:23.423Z,100107.25
2023-08-29T04:49:53.402Z,100110.81
2023-08-29T04:52:23.296Z,100110.81
2023-08-29T04:54:54.878Z,100100.28
2023-08-29T04:57:26.006Z,100097.66
2023-08-29T05:00:03.221Z,100097.41
2023-08-29T05:02:50.255Z,100100.88
2023-08-29T05:05:22.930Z,100097.41
2023-08-29T05:07:54.367Z,100107.97
2023-08-29T05:10:28.975Z,100095.50
2023-08-29T05:12:58.814Z,100098.13
2023-08-29T05:15:31.379Z,100097.41
2023-08-29T05:18:07.080Z,100092.97
2023-08-29T05:20:45.490Z,100095.50
2023-08-29T05:23:17.287Z,100092.88
2023-08-29T05:25:47.786Z,100081.50
2023-08-29T05:28:20.620Z,100090.34
2023-08-29T05:30:53.228Z,100084.25
2023-08-29T05:33:23.317Z,100087.69
2023-08-29T05:35:58.808Z,100092.97
2023-08-29T05:38:30.487Z,100090.22
2023-08-29T05:41:04.212Z,100092.03
2023-08-29T05:43:54.200Z,100082.56
2023-08-29T05:46:25.323Z,100084.25
2023-08-29T05:48:55.371Z,100082.56
2023-08-29T05:51:53.668Z,100067.59
2023-08-29T05:54:23.615Z,100065.09
2023-08-29T05:56:54.960Z,100066.03
2023-08-29T05:59:29.948Z,100059.09
2023-08-29T06:02:02.993Z,100060.06
2023-08-29T06:04:35.154Z,100054.91
2023-08-29T06:07:05.164Z,100060.06
2023-08-29T06:09:47.229Z,100053.09
2023-08-29T06:12:18.325Z,100058.38
2023-08-29T06:14:54.648Z,100053.09
2023-08-29T06:17:24.260Z,100045.22
2023-08-29T06:19:56.843Z,100042.47
2023-08-29T06:22:30.832Z,100028.53
2023-08-29T06:25:02.492Z,100028.53
2023-08-29T06:27:31.326Z,100015.38
2023-08-29T06:30:02.541Z,100018.00
2023-08-29T06:32:31.450Z,100018.75
2023-08-29T06:35:00.934Z,100017.88
2023-08-29T06:37:31.186Z,100015.97
2023-08-29T06:40:13.583Z,100009.75
2023-08-29T06:42:43.386Z,100010.56
2023-08-29T06:45:12.930Z,100008.06
2023-08-29T06:47:42.865Z,99994.88
2023-08-29T06:50:14.558Z,100003.75
2023-08-29T06:52:45.316Z,99994.88
2023-08-29T06:55:15.263Z,99997.41
2023-08-29T06:57:46.157Z,99998.38
2023-08-29T07:00:18.705Z,99996.69
2023-08-29T07:02:47.597Z,99994.06
2023-08-29T07:05:21.061Z,99997.50
2023-08-29T07:07:51.055Z,99995.72
2023-08-29T07:10:23.199Z,99989.59
2023-08-29T07:12:53.961Z,99990.34
2023-08-29T07:15:25.343Z,99991.31
2023-08-29T07:17:55.596Z,99987.94
2023-08-29T07:20:26.131Z,99988.91
2023-08-29T07:22:56.826Z,99987.13
2023-08-29T07:25:46.767Z,99989.50
2023-08-29T07:28:17.123Z,99982.66
2023-08-29T07:30:52.911Z,99978.25
2023-08-29T07:33:27.388Z,99979.31
2023-08-29T07:36:03.125Z,99979.31
2023-08-29T07:38:34.149Z,99981.00
2023-08-29T07:41:06.137Z,99974.91
2023-08-29T07:43:42.326Z,99974.91
2023-08-29T07:46:17.030Z,99981.84
2023-08-29T07:48:46.891Z,99980.28
2023-08-29T07:51:17.047Z,99986.28
2023-08-29T07:53:46.181Z,99978.38
2023-08-29T07:56:27.316Z,99973.94
2023-08-29T07:58:58.244Z,99968.78
2023-08-29T08:01:27.637Z,99973.09
2023-08-29T08:03:59.652Z,99971.44
2023-08-29T08:06:34.843Z,99973.22
2023-08-29T08:09:06.378Z,99972.28
2023-08-29T08:11:39.985Z,99977.53
2023-08-29T08:14:22.902Z,99972.97
2023-08-29T08:17:25.664Z,99974.53
2023-08-29T08:20:02.123Z,99974.91
2023-08-29T08:22:42.923Z,99969.63
2023-08-29T08:25:14.285Z,99974.75
2023-08-29T08:27:45.580Z,99973.94
2023-08-29T08:30:15.963Z,99972.63
2023-08-29T08:32:50.256Z,99963.03
2023-08-29T08:35:19.816Z,99966.66
2023-08-29T08:37:49.576Z,99970.25
2023-08-29T08:40:24.477Z,99973.47
2023-08-29T08:42:56.435Z,99968.78
2023-08-29T08:45:48.051Z,99981.69
2023-08-29T08:48:32.633Z,99972.28
2023-08-29T08:51:07.969Z,99973.22
2023-08-29T08:53:42.637Z,99976.69
2023-08-29T08:56:26.592Z,99969.63
2023-08-29T08:58:56.730Z,99967.13
2023-08-29T09:01:41.432Z,99956.69
2023-08-29T09:04:15.267Z,99956.69
2023-08-29T09:06:46.874Z,99955.88
2023-08-29T09:09:27.045Z,99960.19
2023-08-29T09:11:59.890Z,99965.44
2023-08-29T09:14:30.027Z,99957.66
2023-08-29T09:17:23.682Z,99959.22
2023-08-29T09:20:19.500Z,99954.75
2023-08-29T09:22:53.806Z,99948.09
2023-08-29T09:25:28.928Z,99954.19
2023-08-29T09:28:00.350Z,99955.16
2023-08-29T09:30:35.542Z,99956.09
2023-08-29T09:33:13.305Z,99949.88
2023-08-29T09:35:50.370Z,99956.00
2023-08-29T09:38:20.924Z,99955.16
2023-08-29T09:40:59.443Z,99953.47
2023-08-29T09:43:33.106Z,99955.16
2023-08-29T09:46:24.926Z,99961.16
2023-08-29T09:49:22.887Z,99952.28
2023-08-29T09:51:53.090Z,99951.78
2023-08-29T09:54:26.420Z,99947.38
2023-08-29T09:57:04.883Z,99951.53
2023-08-29T09:59:39.028Z,99956.81
2023-08-29T10:02:15.762Z,99961.16
2023-08-29T10:05:02.847Z,99963.63
2023-08-29T10:07:50.822Z,99964.59
2023-08-29T10:10:23.261Z,99967.25
2023-08-29T10:13:01.461Z,99954.91
2023-08-29T10:15:31.515Z,99955.88
2023-08-29T10:18:06.623Z,99958.50
2023-08-29T10:20:49.934Z,99958.50
2023-08-29T10:23:22.850Z,99968.09
2023-08-29T10:26:04.006Z,99967.25
2023-08-29T10:28:36.060Z,99966.41
2023-08-29T10:32:16.634Z,99965.91
2023-08-29T10:35:14.295Z,99968.78
2023-08-29T10:38:10.480Z,99963.78
2023-08-29T10:41:15.233Z,99970.00
2023-08-29T10:44:24.003Z,99979.81
2023-08-29T10:47:30.701Z,99975.25
2023-08-29T10:50:13.118Z,99972.88
2023-08-29T10:53:02.453Z,99976.47
2023-08-29T10:55:46.111Z,99974.81
2023-08-29T10:58:57.443Z,99969.28
2023-08-29T11:01:35.328Z,99966.91
2023-08-29T11:04:25.234Z,99968.47
2023-08-29T11:07:04.023Z,99968.47
2023-08-29T11:09:34.575Z,99973.00
2023-08-29T11:12:31.653Z,99974.56
2023-08-29T11:15:17.782Z,99972.63
2023-08-29T11:18:35.384Z,99971.53
2023-08-29T11:21:19.586Z,99972.63
2023-08-29T11:24:13.778Z,99972.63
2023-08-29T11:27:11.210Z,99972.63
2023-08-29T11:30:05.834Z,99976.22
2023-08-29T11:33:02.388Z,99973.47
2023-08-29T11:36:13.608Z,99972.50
2023-08-29T11:39:22.615Z,99978.75
2023-08-29T11:42:10.847Z,99974.56
2023-08-29T11:45:47.706Z,99981.38
2023-08-29T11:49:43.743Z,99978.63
2023-08-29T11:53:18.924Z,99980.66
2023-08-29T11:55:59.160Z,99979.72
2023-08-29T11:58:35.504Z,99978.03
2023-08-29T12:01:25.234Z,99973.59
2023-08-29T12:04:00.219Z,99976.22
2023-08-29T12:06:31.298Z,99969.28
2023-08-29T12:09:01.767Z,99969.28
2023-08-29T12:11:43.777Z,99964.59
2023-08-29T12:14:15.277Z,99962.94
2023-08-29T12:16:58.343Z,99967.00
2023-08-29T12:19:41.447Z,99963.53
2023-08-29T12:22:23.013Z,99968.78
2023-08-29T12:25:06.383Z,99970.47
2023-08-29T12:27:52.427Z,99975.72
2023-08-29T12:30:34.378Z,99984.59
2023-08-29T12:33:10.364Z,99984.47
2023-08-29T12:35:45.036Z,99981.69
2023-08-29T12:38:21.764Z,99978.13
2023-08-29T12:40:53.514Z,99980.88
2023-08-29T12:43:24.433Z,99984.22
2023-08-29T12:46:00.017Z,99985.06
2023-08-29T12:48:31.928Z,99986.75
2023-08-29T12:51:04.605Z,99981.22
2023-08-29T12:53:46.782Z,99987.22
2023-08-29T12:56:23.276Z,99984.69
2023-08-29T12:59:23.021Z,99991.53
2023-08-29T13:02:06.833Z,99988.03
2023-08-29T13:04:41.384Z,99983.63
2023-08-29T13:07:22.350Z,99979.03
2023-08-29T13:09:55.701Z,99982.66
2023-08-29T13:12:42.057Z,99981.56
2023-08-29T13:15:50.672Z,99985.88
2023-08-29T13:18:33.485Z,99989.31
2023-08-29T13:21:17.947Z,99986.69
2023-08-29T13:24:06.633Z,99990.06
2023-08-29T13:26:54.334Z,100000.59
2023-08-29T13:29:33.586Z,100000.47
2023-08-29T13:32:12.502Z,100000.47
2023-08-29T13:35:35.641Z,100011.59
2023-08-29T13:38:23.456Z,100009.09
2023-08-29T13:40:53.408Z,100007.41
2023-08-29T13:43:25.897Z,100010.78
2023-08-29T13:45:55.824Z,100011.47
2023-08-29T13:48:31.461Z,100011.47
2023-08-29T13:51:03.064Z,100012.31
2023-08-29T13:53:32.332Z,100008.72
2023-08-29T13:56:03.158Z,100005.94
2023-08-29T13:58:43.674Z,100002.38
2023-08-29T14:05:10.299Z,100004.13
2023-08-29T14:08:03.677Z,99999.78
2023-08-29T14:10:43.326Z,99996.06
2023-08-29T14:14:02.070Z,100007.22
2023-08-29T14:17:27.026Z,100009.91
2023-08-29T14:20:57.785Z,100010.09
2023-08-29T14:24:27.720Z,100015.25
2023-08-29T14:27:49.861Z,100015.13
2023-08-29T14:31:29.849Z,100017.53
2023-08-29T14:34:51.594Z,100017.53
2023-08-29T14:38:06.772Z,100011.31
2023-08-29T14:41:02.296Z,100007.00
2023-08-29T14:43:52.621Z,100015.88
2023-08-29T14:46:27.459Z,100019.44
2023-08-29T14:49:35.215Z,100021.59
2023-08-29T14:52:32.354Z,100029.50
2023-08-29T14:55:14.841Z,100033.09
2023-08-29T14:57:54.852Z,100027.13
2023-08-29T15:00:50.912Z,100025.19
2023-08-29T15:03:23.290Z,100020.66
2023-08-29T15:06:48.839Z,100022.94
2023-08-29T15:09:49.755Z,100020.19
2023-08-29T15:13:26.958Z,100028.03
2023-08-29T15:16:24.130Z,100019.22
2023-08-29T15:19:41.415Z,100023.63
2023-08-29T15:23:12.670Z,100025.31
2023-08-29T15:26:58.418Z,100021.59
2023-08-29T15:31:15.932Z,100022.44
2023-08-29T15:38:03.425Z,100016.47
2023-08-29T15:41:20.233Z,100024.38
2023-08-29T15:44:03.675Z,100026.03
2023-08-29T15:51:15.673Z,100023.72
2023-08-29T15:54:11.283Z,100023.97
2023-08-29T15:56:51.389Z,100018.56
2023-08-29T15:59:29.448Z,100022.91
2023-08-29T16:03:00.502Z,100014.72
2023-08-29T16:05:48.323Z,100015.69
2023-08-29T16:08:55.890Z,100025.16
2023-08-29T16:12:20.569Z,100020.69
2023-08-29T16:19:25.489Z,100002.22
2023-08-29T16:22:04.461Z,99998.78
2023-08-29T16:29:08.958Z,99990.47
2023-08-29T16:33:02.094Z,99985.06
2023-08-29T16:36:13.989Z,99985.06
2023-08-29T16:39:22.486Z,99984.94
2023-08-29T16:42:14.186Z,99980.50
2023-08-29T16:45:43.504Z,99971.09
2023-08-29T16:48:23.385Z,99971.34
2023-08-29T16:51:22.058Z,99971.88
2023-08-29T16:55:10.394Z,99958.50
2023-08-29T16:57:56.539Z,99960.56
2023-08-29T17:04:37.727Z,99961.53
2023-08-29T17:07:48.727Z,99957.06
2023-08-29T17:12:34.094Z,99966.97
2023-08-29T17:52:53.205Z,99918.22
2023-08-29T17:55:43.068Z,99914.50
2023-08-29T17:59:21.242Z,99913.94
2023-08-29T18:02:21.190Z,99917.31
2023-08-29T18:05:13.920Z,99912.72
2023-08-29T18:07:55.657Z,99899.97
2023-08-29T18:17:14.869Z,99882.06
2023-08-29T18:20:22.881Z,99877.91
2023-08-29T18:23:02.524Z,99857.47
2023-08-29T18:26:14.146Z,99856.94
2023-08-29T18:34:11.417Z,99852.91
2023-08-29T18:37:19.155Z,99845.66
2023-08-29T18:40:18.641Z,99838.28
2023-08-29T18:43:19.383Z,99832.88
2023-08-29T18:46:34.447Z,99831.81
2023-08-29T20:50:27.064Z,99688.59
2023-08-29T20:53:12.160Z,99686.34
2023-08-29T20:55:48.824Z,99686.09
2023-08-29T20:58:30.582Z,99686.59
2023-08-29T21:01:10.947Z,99687.13
2023-08-29T21:03:46.119Z,99678.25
2023-08-29T21:06:23.764Z,99674.63
2023-08-29T21:09:08.761Z,99677.81
2023-08-29T21:11:45.918Z,99674.19
2023-08-29T21:14:32.292Z,99666.09
2023-08-29T21:17:12.620Z,99659.00
2023-08-29T21:20:02.317Z,99659.13
2023-08-29T21:28:53.811Z,99650.88
2023-08-29T21:51:35.866Z,99660.31
2023-08-29T22:02:20.018Z,99645.16
2023-08-29T22:05:32.502Z,99644.19
2023-08-29T22:08:32.558Z,99646.50
2023-08-29T22:11:58.621Z,99657.88
2023-08-29T22:15:51.500Z,99653.56
2023-08-29T22:18:42.672Z,99660.66
2023-08-29T22:27:01.223Z,99663.47
2023-08-29T22:30:27.788Z,99665.13
2023-08-29T22:37:27.970Z,99657.78
2023-08-29T22:40:46.569Z,99644.69
2023-08-29T22:49:42.338Z,99636.22
